Avon, CO (81620)

11:46 AM MDT en Octubre 31, 2014 (GMT -0600)
Whiskey Hill, EagleVail | Change Station
CLOSE
Current Station
Estación meteorológica personal
Location: Avon, CO
Altura: 7959 ft
Estaciones meteorológicas cercanas
Aviso en curso: Special Statement

Alt 7959 ft 39.61 °N, 106.48 °W | Updated 1 minute ago

Despejado
Despejado
48.7 ° F
Sensación térmica 49 ° F
N
0.0
Viento Variable Viento desde Norte
Gusts 0.0 mph

Hoy
Alta -- | Baja -- ° F
--% Posibilidad de precipitaciones
Ayer
Alta -- | Baja -- ° F
Precip. -- pul
7:33 AM 6:05 PM
Cuarto creciente, 57% visible
Presión 30.34 pul
Visibilidad 10.0 Millas
Nubes Nubes dispersas 20000 ft
Vientos helados 49 ° F
Punto de rocío 10 ° F
Humedad 21%
Precipitaciones 0.00 pul
Espesor de la nieve No disponible.
UV 3 de una escala de 12
Polen 2.10 de una escala de 12
Calidad del aire No disponible.
Flu Activity No disponible.
METAR KEGE 311650Z 00000KT 10SM SCT200 04/M04 A3034

More Conditions Fewer Conditions

Presión 30.34 pul
Visibilidad 10.0 Millas
Nubes Nubes dispersas 20000 ft
Vientos helados 49 ° F
Punto de rocío 10 ° F
Humedad 21%
Precipitaciones 0.00 pul
Espesor de la nieve No disponible.
UV 3 de una escala de 12
Polen 2.10 de una escala de 12
Calidad del aire No disponible.
Flu Activity No disponible.
METAR KEGE 311650Z 00000KT 10SM SCT200 04/M04 A3034

More Conditions Fewer Conditions

10-Day Weather Forecast

Almanac

Astronomía

Oct. 31, 2014 Salida Puesta
Hora real
Crepúsculo civil
Crepúsculo náutico
Crepúsculo astronómico
Luna
Horas de luz
Horas de luz
Tomorrow will be .
, % of the Moon is Illuminated

Extremos de hoy

Máximos del estado Bajos del estado

Community

WunderPhotos

Upload Photos

1,766,673 ¡fotos cargadas!

WunderBlogs® & News

Nearby

Calidad del aire

  Calidad del aire Índice AQ Contaminante
Not available.

Grosos de nieve

Estación Profundido Altura

Actividad de terremotos

Ciudad Distance Mag. Tiempo y dato
Magnitud mínima muestra es 2,5.

Temperaturas de aguas costeras

Lugar Temperatura

Estaciones meteorológicas cercanas